createdAt,value
2022-12-11T19:02:08.544Z,0.82
2022-12-11T19:04:37.772Z,0.90
2022-12-11T19:07:05.797Z,0.82
2022-12-11T19:09:38.039Z,0.73
2022-12-11T19:12:07.115Z,0.68
2022-12-11T19:14:35.450Z,0.63
2022-12-11T19:17:04.198Z,2.95
2022-12-11T19:19:34.109Z,3.65
2022-12-11T19:22:02.261Z,4.55
2022-12-11T19:24:30.498Z,4.00
2022-12-11T19:26:58.880Z,3.88
2022-12-11T19:29:28.595Z,3.42
2022-12-11T19:31:57.285Z,3.40
2022-12-11T19:34:26.305Z,3.00
2022-12-11T19:36:56.170Z,2.80
2022-12-11T19:39:24.272Z,2.80
2022-12-11T19:41:52.425Z,2.85
2022-12-11T19:44:20.541Z,2.53
2022-12-11T19:46:48.801Z,2.33
2022-12-11T19:49:17.162Z,2.50
2022-12-11T19:51:45.342Z,2.45
2022-12-11T19:54:17.194Z,1.90
2022-12-11T19:56:45.516Z,2.20
2022-12-11T19:59:16.647Z,2.00
2022-12-11T20:01:46.753Z,2.00
2022-12-11T20:04:16.526Z,2.08
2022-12-11T20:06:46.883Z,1.85
2022-12-11T20:09:16.998Z,1.92
2022-12-11T20:11:47.417Z,1.60
2022-12-11T20:14:21.199Z,1.20
2022-12-11T20:19:37.955Z,1.67
2022-12-11T20:22:06.225Z,1.50
2022-12-11T20:24:35.842Z,1.33
2022-12-11T20:27:04.485Z,1.40
2022-12-11T20:29:32.514Z,1.20
2022-12-11T20:32:00.829Z,1.42
2022-12-11T20:34:28.879Z,1.30
2022-12-11T20:36:57.150Z,1.20
2022-12-11T20:39:25.448Z,1.05
2022-12-11T20:41:54.873Z,1.48
2022-12-11T20:44:22.939Z,1.10
2022-12-11T20:46:51.584Z,1.02
2022-12-11T20:49:19.650Z,1.33
2022-12-11T20:51:47.870Z,1.30
2022-12-11T20:54:15.889Z,1.00
2022-12-11T20:56:43.929Z,1.00
2022-12-11T20:59:13.553Z,0.90
2022-12-11T21:01:41.692Z,1.00
2022-12-11T21:04:10.022Z,0.90
2022-12-11T21:06:40.518Z,1.10
2022-12-11T21:09:10.868Z,0.70
2022-12-11T21:11:39.315Z,0.85
2022-12-11T21:14:08.068Z,0.82
2022-12-11T21:16:38.815Z,1.00
2022-12-11T21:19:11.279Z,0.90
2022-12-11T21:21:41.930Z,0.60
2022-12-11T21:24:15.169Z,0.90
2022-12-11T21:26:43.207Z,0.90
2022-12-11T21:29:11.761Z,0.75
2022-12-11T21:31:41.213Z,0.88
2022-12-11T21:34:10.083Z,0.90
2022-12-11T21:36:38.085Z,1.05
2022-12-11T21:39:07.197Z,0.90
2022-12-11T21:41:35.320Z,0.80
2022-12-11T21:45:14.580Z,0.90
2022-12-11T21:46:53.262Z,0.75
2022-12-11T21:49:21.857Z,0.90
2022-12-11T21:51:50.087Z,0.80
2022-12-11T21:54:20.629Z,0.63
2022-12-11T21:56:48.916Z,0.63
2022-12-11T21:59:17.193Z,0.82
2022-12-11T22:01:46.972Z,0.90
2022-12-11T22:04:17.077Z,0.70
2022-12-11T22:06:47.017Z,0.80
2022-12-11T22:09:16.538Z,0.82
2022-12-11T22:11:46.168Z,0.50
2022-12-11T22:14:16.118Z,0.77
2022-12-11T22:16:44.399Z,0.80
2022-12-11T22:19:12.951Z,1.50
2022-12-11T22:21:42.696Z,1.10
2022-12-11T22:24:11.031Z,0.93
2022-12-11T22:26:40.023Z,1.08
2022-12-11T22:29:08.422Z,0.95
2022-12-11T22:31:36.454Z,1.00
2022-12-11T22:34:04.624Z,0.70
2022-12-11T22:36:32.664Z,0.70
2022-12-11T22:39:03.029Z,0.70
2022-12-11T22:41:38.518Z,1.00
2022-12-11T22:44:06.531Z,0.60
2022-12-11T22:46:35.089Z,0.80
2022-12-11T22:49:03.159Z,1.10
2022-12-11T22:51:31.527Z,0.60
2022-12-11T22:54:00.471Z,0.80
2022-12-11T22:56:30.038Z,0.88
2022-12-11T22:58:59.038Z,0.95
2022-12-11T23:01:28.943Z,1.08
2022-12-11T23:03:57.276Z,0.52
2022-12-11T23:06:26.004Z,0.93
2022-12-11T23:08:55.271Z,0.70
2022-12-11T23:11:25.783Z,0.50
2022-12-11T23:13:55.859Z,0.93
2022-12-11T23:16:25.273Z,0.60
2022-12-11T23:18:54.057Z,0.80
2022-12-11T23:21:22.736Z,0.60
2022-12-11T23:23:51.237Z,0.70
2022-12-11T23:26:19.641Z,0.70
2022-12-11T23:28:48.629Z,1.10
2022-12-11T23:31:18.531Z,1.05
2022-12-11T23:33:47.052Z,1.10
2022-12-11T23:36:15.087Z,1.05
2022-12-11T23:38:44.417Z,1.20
2022-12-11T23:41:16.116Z,1.27
2022-12-11T23:43:44.602Z,0.90
2022-12-11T23:46:14.763Z,1.00
2022-12-11T23:48:44.790Z,1.08
2022-12-11T23:51:15.179Z,0.82
2022-12-11T23:53:43.974Z,0.90
2022-12-11T23:56:15.982Z,0.55
2022-12-11T23:58:44.359Z,0.75
